HTKJ Airport Information

Runway Information
Runway 09 Length 11834 ft width 148 ft
Elevation 2932 ft Threshold 0 ft Heading 87
Runway 27 Length 11834 ft Width 148 ft
Elevation 2902 ft Threshold 0 ft Heading 267
Airport Frequencies
Type APP Name APP Frequency 120.1 MHZ
Type ATIS Name ATIS Frequency 126.6 MHZ
Type TWR Name TWR Frequency 120.1 MHZ
Airport Navaids
Type NDB Name Kilimanjaro Frequency 293 KHZ
Type NDB Name Kilimanjaro Frequency 283 KHZ
Type NDB Name Kilimanjaro Frequency 298 KHZ
Type VOR-DME Name Kilimanjaro Frequency 115300 KHZ
Airport Weather Information & NOTAM
ADDS - METARS form results

(2327 UTC 18 June 2019)
Data provider http://aviationweather.gov/metar/data/
 
METAR text: HTKJ 182300Z 00000KT 9999 BKN022 19/16 Q1020 NOSIG
Conditions at: HTKJ (KILIMANJARO AIRP, TZ) observed 2300 UTC 18 June 2019
Temperature: 19.0°C (66°F)
Dewpoint: 16.0°C (61°F) [RH = 83%]
Pressure (altimeter): 30.12 inches Hg (1020.0 mb)
Winds: calm
Visibility: 6 or more miles (10+ km)
Ceiling: 2200 feet AGL
Clouds: broken clouds at 2200 feet AGL
Weather: no significant weather observed at this time